createdAt,value
2017-09-26T00:00:21.969Z,11.80
2017-09-26T00:02:49.558Z,12.20
2017-09-26T00:05:17.124Z,12.20
2017-09-26T00:07:44.715Z,12.20
2017-09-26T00:10:13.184Z,12.00
2017-09-26T00:12:41.571Z,12.30
2017-09-26T00:15:09.143Z,12.30
2017-09-26T00:17:36.734Z,12.40
2017-09-26T00:20:04.484Z,12.10
2017-09-26T00:22:32.072Z,11.80
2017-09-26T00:24:59.676Z,11.60
2017-09-26T00:27:27.248Z,11.60
2017-09-26T00:29:54.848Z,11.50
2017-09-26T00:32:22.546Z,11.60
2017-09-26T00:34:50.912Z,11.50
2017-09-26T00:37:19.252Z,11.60
2017-09-26T00:39:46.833Z,11.60
2017-09-26T00:42:14.431Z,11.50
2017-09-26T00:44:42.004Z,11.60
2017-09-26T00:47:09.627Z,11.80
2017-09-26T00:49:37.979Z,11.90
2017-09-26T00:52:05.567Z,11.90
2017-09-26T00:54:33.943Z,12.20
2017-09-26T00:57:02.272Z,12.00
2017-09-26T00:59:29.890Z,12.00
2017-09-26T01:01:57.451Z,12.30
2017-09-26T01:04:25.171Z,12.30
2017-09-26T01:06:58.531Z,12.10
2017-09-26T01:09:26.119Z,11.90
2017-09-26T01:11:53.686Z,11.70
2017-09-26T01:14:21.260Z,11.60
2017-09-26T01:16:49.790Z,11.50
2017-09-26T01:19:17.379Z,11.50
2017-09-26T01:21:44.982Z,11.50
2017-09-26T01:24:12.551Z,11.50
2017-09-26T01:26:40.163Z,11.50
2017-09-26T01:29:07.839Z,11.60
2017-09-26T01:31:36.203Z,12.00
2017-09-26T01:34:03.763Z,12.00
2017-09-26T01:36:31.323Z,12.00
2017-09-26T01:38:58.956Z,11.60
2017-09-26T01:41:26.627Z,11.50
2017-09-26T01:43:54.231Z,11.40
2017-09-26T01:46:21.799Z,11.30
2017-09-26T01:48:49.510Z,11.40
2017-09-26T01:51:17.066Z,11.40
2017-09-26T01:53:44.630Z,11.40
2017-09-26T01:56:12.267Z,11.30
2017-09-26T01:58:44.715Z,11.30
2017-09-26T02:01:12.319Z,11.40
2017-09-26T02:03:39.874Z,11.30
2017-09-26T02:06:07.435Z,11.30
2017-09-26T02:08:35.024Z,11.20
2017-09-26T02:11:03.357Z,11.30
2017-09-26T02:13:30.964Z,11.30
2017-09-26T02:15:58.569Z,11.60
2017-09-26T02:18:26.155Z,11.40
2017-09-26T02:20:54.610Z,11.20
2017-09-26T02:23:22.962Z,11.20
2017-09-26T02:25:50.551Z,11.20
2017-09-26T02:28:18.123Z,11.10
2017-09-26T02:30:45.742Z,11.10
2017-09-26T02:33:13.307Z,11.10
2017-09-26T02:35:40.871Z,11.10
2017-09-26T02:38:08.466Z,11.10
2017-09-26T02:40:36.026Z,11.00
2017-09-26T02:43:04.504Z,10.90
2017-09-26T02:45:32.059Z,10.90
2017-09-26T02:47:59.724Z,11.00
2017-09-26T02:50:27.282Z,11.20
2017-09-26T02:52:54.854Z,11.20
2017-09-26T02:55:23.203Z,11.60
2017-09-26T02:57:50.810Z,11.60
2017-09-26T03:00:18.403Z,11.60
2017-09-26T03:02:45.983Z,11.40
2017-09-26T03:05:13.604Z,11.70
2017-09-26T03:07:41.171Z,11.70
2017-09-26T03:10:08.731Z,11.70
2017-09-26T03:12:36.323Z,11.70
2017-09-26T03:15:04.655Z,11.60
2017-09-26T03:17:32.251Z,11.60
2017-09-26T03:19:59.832Z,11.50
2017-09-26T03:22:28.191Z,11.30
2017-09-26T03:24:55.815Z,11.30
2017-09-26T03:27:23.515Z,11.30
2017-09-26T03:29:51.095Z,11.20
2017-09-26T03:32:19.511Z,11.20
2017-09-26T03:34:47.094Z,11.20
2017-09-26T03:37:14.687Z,11.20
2017-09-26T03:39:43.023Z,11.30
2017-09-26T03:42:10.591Z,11.30
2017-09-26T03:44:38.191Z,11.60
2017-09-26T03:47:05.776Z,11.60
2017-09-26T03:49:33.363Z,11.80
2017-09-26T03:52:00.931Z,11.60
2017-09-26T03:54:29.288Z,11.60
2017-09-26T03:56:56.883Z,11.60
2017-09-26T03:59:25.219Z,11.90
2017-09-26T04:01:52.827Z,11.90
2017-09-26T04:04:21.159Z,12.00
2017-09-26T04:06:48.719Z,12.00
2017-09-26T04:09:16.395Z,12.20
2017-09-26T04:11:43.963Z,12.10
2017-09-26T04:14:12.340Z,11.80
2017-09-26T04:16:39.914Z,11.80
2017-09-26T04:19:08.235Z,12.20
2017-09-26T04:21:35.827Z,12.20
2017-09-26T04:24:03.407Z,12.30
2017-09-26T04:26:31.763Z,12.10
2017-09-26T04:29:00.847Z,11.80
2017-09-26T04:31:28.480Z,11.80
2017-09-26T04:33:56.040Z,11.60
2017-09-26T04:36:23.664Z,11.60
2017-09-26T04:38:51.241Z,11.50
2017-09-26T04:41:18.808Z,11.50
2017-09-26T04:43:46.387Z,11.50
2017-09-26T04:46:13.984Z,11.50
2017-09-26T04:48:42.333Z,11.30
2017-09-26T04:51:09.911Z,11.30
2017-09-26T04:53:38.274Z,11.50
2017-09-26T04:56:05.864Z,11.50
2017-09-26T04:58:34.220Z,11.70
2017-09-26T05:01:02.592Z,11.50
2017-09-26T05:03:30.159Z,11.50
2017-09-26T05:05:58.693Z,11.40
2017-09-26T05:08:26.256Z,11.40
2017-09-26T05:10:53.835Z,11.30
2017-09-26T05:13:21.427Z,11.40
2017-09-26T05:15:49.846Z,11.30
2017-09-26T05:18:17.451Z,11.30
2017-09-26T05:20:45.011Z,11.30
2017-09-26T05:23:13.380Z,11.30
2017-09-26T05:25:41.767Z,11.50
2017-09-26T05:28:10.100Z,11.70
2017-09-26T05:30:37.703Z,11.70
2017-09-26T05:33:06.049Z,11.70
2017-09-26T05:35:33.640Z,11.70
2017-09-26T05:38:01.227Z,11.60
2017-09-26T05:40:28.830Z,11.60
2017-09-26T05:42:56.435Z,11.60
2017-09-26T05:45:24.784Z,11.80
2017-09-26T05:47:52.366Z,11.80
2017-09-26T05:50:20.703Z,11.80
2017-09-26T05:52:48.299Z,11.80
2017-09-26T05:55:16.659Z,11.80
2017-09-26T05:57:44.319Z,11.80
2017-09-26T06:00:11.926Z,11.80
2017-09-26T06:02:39.486Z,11.80
2017-09-26T06:05:07.091Z,12.00
2017-09-26T06:07:34.659Z,11.90
2017-09-26T06:10:02.231Z,11.80
2017-09-26T06:12:30.588Z,11.90
2017-09-26T06:14:58.367Z,11.90
2017-09-26T06:17:26.832Z,11.90
2017-09-26T06:19:54.390Z,11.90
2017-09-26T06:22:21.948Z,12.00
2017-09-26T06:24:49.587Z,12.00
2017-09-26T06:27:17.165Z,12.40
2017-09-26T06:29:44.755Z,12.40
2017-09-26T06:32:12.322Z,12.40
2017-09-26T06:34:39.887Z,12.40
2017-09-26T06:37:07.476Z,12.40
2017-09-26T06:39:35.167Z,12.30
2017-09-26T06:42:03.539Z,12.10
2017-09-26T06:44:31.222Z,12.10
2017-09-26T06:46:59.593Z,12.20
2017-09-26T06:49:28.042Z,12.20
2017-09-26T06:51:55.615Z,12.20
2017-09-26T06:54:23.214Z,12.30
2017-09-26T06:56:50.919Z,12.30
2017-09-26T06:59:18.522Z,12.40
2017-09-26T07:01:46.098Z,12.40
2017-09-26T07:04:13.683Z,12.40
2017-09-26T07:06:41.274Z,12.30
2017-09-26T07:09:08.848Z,12.30
2017-09-26T07:11:37.242Z,12.70
2017-09-26T07:14:04.819Z,12.60
2017-09-26T07:16:32.388Z,13.10
2017-09-26T07:18:59.987Z,13.30
2017-09-26T07:21:27.555Z,13.30
2017-09-26T07:23:56.073Z,13.30
2017-09-26T07:26:23.680Z,13.30
2017-09-26T07:28:52.759Z,13.30
2017-09-26T07:31:20.342Z,13.30
2017-09-26T07:33:47.977Z,13.40
2017-09-26T07:36:15.542Z,13.30
2017-09-26T07:38:43.270Z,13.50
2017-09-26T07:41:10.883Z,13.60
2017-09-26T07:43:39.390Z,14.50
2017-09-26T07:46:07.020Z,14.50
2017-09-26T07:48:34.605Z,14.10
2017-09-26T07:51:02.167Z,14.00
2017-09-26T07:53:29.752Z,13.90
2017-09-26T07:55:57.343Z,14.30
2017-09-26T07:58:24.963Z,14.60
2017-09-26T08:00:53.383Z,14.10
2017-09-26T08:03:21.551Z,13.80
2017-09-26T08:05:49.854Z,13.90
2017-09-26T08:08:19.043Z,14.10
2017-09-26T08:10:47.431Z,14.70
2017-09-26T08:13:15.863Z,15.30
2017-09-26T08:15:43.672Z,15.30
2017-09-26T08:18:12.026Z,14.80
2017-09-26T08:20:39.599Z,14.80
2017-09-26T08:23:07.979Z,14.70
2017-09-26T08:25:36.317Z,14.60
2017-09-26T08:28:03.931Z,14.60
2017-09-26T08:30:31.505Z,14.60
2017-09-26T08:32:59.067Z,14.90
2017-09-26T08:35:26.672Z,15.80
2017-09-26T08:37:54.253Z,16.30
2017-09-26T08:40:22.617Z,16.50
2017-09-26T08:42:50.181Z,16.40
2017-09-26T08:45:18.553Z,15.60
2017-09-26T08:47:46.151Z,15.60
2017-09-26T08:50:13.773Z,15.80
2017-09-26T08:52:42.128Z,15.40
2017-09-26T08:55:09.905Z,15.30
2017-09-26T08:57:37.477Z,15.20
2017-09-26T09:00:05.803Z,15.40
2017-09-26T09:02:33.424Z,15.40
2017-09-26T09:05:01.756Z,16.10
2017-09-26T09:07:29.368Z,16.10
2017-09-26T09:09:56.965Z,15.90
2017-09-26T09:12:24.559Z,16.00
2017-09-26T09:14:52.918Z,16.60
2017-09-26T09:17:20.520Z,16.60
2017-09-26T09:19:48.082Z,16.90
2017-09-26T09:22:15.702Z,17.20
2017-09-26T09:24:43.267Z,17.40
2017-09-26T09:27:10.854Z,19.10
2017-09-26T09:29:38.447Z,19.10
2017-09-26T09:32:06.019Z,18.50
2017-09-26T09:34:33.640Z,17.80
2017-09-26T09:37:01.207Z,18.60
2017-09-26T09:39:28.820Z,18.80
2017-09-26T09:41:57.167Z,18.60
2017-09-26T09:44:24.731Z,18.60
2017-09-26T09:46:52.357Z,18.80
2017-09-26T09:49:19.999Z,18.20
2017-09-26T09:51:47.592Z,17.70
2017-09-26T09:54:15.164Z,17.90
2017-09-26T09:56:42.719Z,19.00
2017-09-26T09:59:10.334Z,19.80
2017-09-26T10:01:37.914Z,20.70
2017-09-26T10:04:05.539Z,21.80
2017-09-26T10:06:33.880Z,23.10
2017-09-26T10:09:01.500Z,23.10
2017-09-26T10:11:29.077Z,23.40
2017-09-26T10:13:56.678Z,21.70
2017-09-26T10:16:24.299Z,23.60
2017-09-26T10:18:51.883Z,21.30
2017-09-26T10:21:19.568Z,23.00
2017-09-26T10:23:47.895Z,20.50
2017-09-26T10:26:15.592Z,20.50
2017-09-26T10:28:43.154Z,19.60
2017-09-26T10:31:10.751Z,20.50
2017-09-26T10:33:38.432Z,19.60
2017-09-26T10:36:06.101Z,19.90
2017-09-26T10:38:33.762Z,22.20
2017-09-26T10:41:01.359Z,21.70
2017-09-26T10:43:29.702Z,20.30
2017-09-26T10:45:57.310Z,20.30
2017-09-26T10:48:25.631Z,20.20
2017-09-26T10:50:53.200Z,20.10
2017-09-26T10:53:20.790Z,19.90
2017-09-26T10:55:49.119Z,20.30
2017-09-26T10:58:16.696Z,20.30
2017-09-26T11:00:44.386Z,23.40
2017-09-26T11:03:12.775Z,24.40
2017-09-26T11:05:41.107Z,23.30
2017-09-26T11:08:08.707Z,23.20
2017-09-26T11:10:37.055Z,20.60
2017-09-26T11:13:04.619Z,20.60
2017-09-26T11:15:32.356Z,23.50
2017-09-26T11:17:59.931Z,24.40
2017-09-26T11:20:27.505Z,22.60
2017-09-26T11:22:55.108Z,22.30
2017-09-26T11:25:22.704Z,21.50
2017-09-26T11:27:50.287Z,21.50
2017-09-26T11:30:18.818Z,20.80
2017-09-26T11:32:46.406Z,20.80
2017-09-26T11:35:13.972Z,20.40
2017-09-26T11:37:41.599Z,21.50
2017-09-26T11:40:09.167Z,23.20
2017-09-26T11:42:36.743Z,23.60
2017-09-26T11:45:04.331Z,22.90
2017-09-26T11:47:32.788Z,20.40
2017-09-26T11:50:00.411Z,20.40
2017-09-26T11:52:27.979Z,21.40
2017-09-26T11:54:55.550Z,22.80
2017-09-26T11:57:23.147Z,21.70
2017-09-26T11:59:51.495Z,20.80
2017-09-26T12:02:19.127Z,20.80
2017-09-26T12:04:46.701Z,21.70
2017-09-26T12:07:14.552Z,22.60
2017-09-26T12:09:42.165Z,22.10
2017-09-26T12:12:10.530Z,22.80
2017-09-26T12:14:38.898Z,21.70
2017-09-26T12:17:07.440Z,22.40
2017-09-26T12:19:35.031Z,22.30
2017-09-26T12:22:02.603Z,22.10
2017-09-26T12:24:30.979Z,21.70
2017-09-26T12:26:58.539Z,21.70
2017-09-26T12:29:26.880Z,20.60
2017-09-26T12:31:54.512Z,20.50
2017-09-26T12:34:22.088Z,22.30
2017-09-26T12:36:49.684Z,21.30
2017-09-26T12:39:17.363Z,20.90
2017-09-26T12:41:45.728Z,20.10
2017-09-26T12:44:13.327Z,20.10
2017-09-26T12:46:40.900Z,20.30
2017-09-26T12:49:08.575Z,20.20
2017-09-26T12:51:36.139Z,19.80
2017-09-26T12:54:03.756Z,19.60
2017-09-26T12:56:31.327Z,19.90
2017-09-26T12:58:58.911Z,20.20
2017-09-26T13:01:26.523Z,19.90
2017-09-26T13:03:54.086Z,20.60
2017-09-26T13:06:21.695Z,20.30
2017-09-26T13:08:49.275Z,20.00
2017-09-26T13:11:16.847Z,20.30
2017-09-26T13:13:45.278Z,20.20
2017-09-26T13:16:12.924Z,20.20
2017-09-26T13:18:40.522Z,19.90
2017-09-26T13:21:08.083Z,19.40
2017-09-26T13:23:35.660Z,19.50
2017-09-26T13:26:04.018Z,20.80
2017-09-26T13:28:31.615Z,20.80
2017-09-26T13:31:00.340Z,20.80
2017-09-26T13:33:27.912Z,20.70
2017-09-26T13:35:55.506Z,20.30
2017-09-26T13:38:23.851Z,20.40
2017-09-26T13:40:51.450Z,20.40
2017-09-26T13:43:19.090Z,20.50
2017-09-26T13:45:47.419Z,20.50
2017-09-26T13:48:15.019Z,20.50
2017-09-26T13:50:43.369Z,21.00
2017-09-26T13:53:10.967Z,21.00
2017-09-26T13:55:39.318Z,20.20
2017-09-26T13:58:06.944Z,20.20
2017-09-26T14:00:34.558Z,20.10
2017-09-26T14:03:02.923Z,20.10
2017-09-26T14:05:30.515Z,20.10
2017-09-26T14:07:58.095Z,20.10
2017-09-26T14:10:25.683Z,20.20
2017-09-26T14:12:53.301Z,20.40
2017-09-26T14:15:20.880Z,20.20
2017-09-26T14:17:48.484Z,20.30
2017-09-26T14:20:16.959Z,20.80
2017-09-26T14:22:45.443Z,20.30
2017-09-26T14:25:13.926Z,20.50
2017-09-26T14:27:42.256Z,20.20
2017-09-26T14:30:09.869Z,20.20
2017-09-26T14:32:38.208Z,20.20
2017-09-26T14:35:05.831Z,20.20
2017-09-26T14:37:33.400Z,20.40
2017-09-26T14:40:00.988Z,21.30
2017-09-26T14:42:28.579Z,22.10
2017-09-26T14:44:56.922Z,21.30
2017-09-26T14:47:24.520Z,21.30
2017-09-26T14:49:52.151Z,20.00
2017-09-26T14:52:19.747Z,19.50
2017-09-26T14:54:47.319Z,19.40
2017-09-26T14:57:14.979Z,19.40
2017-09-26T14:59:42.527Z,19.30
2017-09-26T15:02:10.114Z,19.30
2017-09-26T15:04:37.700Z,19.30
2017-09-26T15:07:05.267Z,19.10
2017-09-26T15:09:32.832Z,19.10
2017-09-26T15:12:01.200Z,19.30
2017-09-26T15:14:28.787Z,19.30
2017-09-26T15:16:56.387Z,19.50
2017-09-26T15:19:23.973Z,19.50
2017-09-26T15:21:51.543Z,18.70
2017-09-26T15:24:20.036Z,18.70
2017-09-26T15:26:48.381Z,18.80
2017-09-26T15:29:15.982Z,18.80
2017-09-26T15:31:43.556Z,18.60
2017-09-26T15:34:11.153Z,18.90
2017-09-26T15:36:38.724Z,18.40
2017-09-26T15:39:06.297Z,18.30
2017-09-26T15:41:34.660Z,17.90
2017-09-26T15:44:02.229Z,17.90
2017-09-26T15:46:30.587Z,18.60
2017-09-26T15:48:58.267Z,18.60
2017-09-26T15:51:26.644Z,18.30
2017-09-26T15:53:54.983Z,18.10
2017-09-26T15:56:22.540Z,18.10
2017-09-26T15:58:50.144Z,18.10
2017-09-26T16:01:18.488Z,18.10
2017-09-26T16:03:47.587Z,17.70
2017-09-26T16:06:15.160Z,17.70
2017-09-26T16:08:42.767Z,17.50
2017-09-26T16:11:10.339Z,16.90
2017-09-26T16:13:37.953Z,16.90
2017-09-26T16:16:06.287Z,16.70
2017-09-26T16:18:33.856Z,16.60
2017-09-26T16:21:01.458Z,16.30
2017-09-26T16:23:29.040Z,16.40
2017-09-26T16:25:56.680Z,16.30
2017-09-26T16:28:24.277Z,16.90
2017-09-26T16:30:51.876Z,16.70
2017-09-26T16:33:20.242Z,16.20
2017-09-26T16:35:47.807Z,16.20
2017-09-26T16:38:16.194Z,16.40
2017-09-26T16:40:44.657Z,16.10
2017-09-26T16:43:12.481Z,16.10
2017-09-26T16:45:40.057Z,16.20
2017-09-26T16:48:07.653Z,16.70
2017-09-26T16:50:36.080Z,16.60
2017-09-26T16:53:03.653Z,16.60
2017-09-26T16:55:31.223Z,16.60
2017-09-26T16:57:58.837Z,16.70
2017-09-26T17:00:26.476Z,16.80
2017-09-26T17:02:54.093Z,16.80
2017-09-26T17:05:21.692Z,16.70
2017-09-26T17:07:49.325Z,16.60
2017-09-26T17:10:17.691Z,15.90
2017-09-26T17:12:45.295Z,15.90
2017-09-26T17:15:12.881Z,15.80
2017-09-26T17:17:40.455Z,15.70
2017-09-26T17:20:08.081Z,15.70
2017-09-26T17:22:35.651Z,16.30
2017-09-26T17:25:03.387Z,16.40
2017-09-26T17:27:30.956Z,16.30
2017-09-26T17:29:58.692Z,15.80
2017-09-26T17:32:27.035Z,15.70
2017-09-26T17:34:54.627Z,15.60
2017-09-26T17:37:22.963Z,15.60
2017-09-26T17:39:50.671Z,15.60
2017-09-26T17:42:19.068Z,15.40
2017-09-26T17:44:46.661Z,15.40
2017-09-26T17:47:14.264Z,15.10
2017-09-26T17:49:42.608Z,15.40
2017-09-26T17:52:10.207Z,15.40
2017-09-26T17:54:38.553Z,15.70
2017-09-26T17:57:07.826Z,15.80
2017-09-26T17:59:35.427Z,15.80
2017-09-26T18:02:03.775Z,15.70
2017-09-26T18:04:31.379Z,15.70
2017-09-26T18:06:59.046Z,15.30
2017-09-26T18:09:26.652Z,15.20
2017-09-26T18:11:54.243Z,15.50
2017-09-26T18:14:22.599Z,15.90
2017-09-26T18:16:51.717Z,15.80
2017-09-26T18:19:20.082Z,15.80
2017-09-26T18:21:47.687Z,15.90
2017-09-26T18:24:15.265Z,15.80
2017-09-26T18:26:42.871Z,15.60
2017-09-26T18:29:11.280Z,15.50
2017-09-26T18:31:38.929Z,15.40
2017-09-26T18:34:06.513Z,15.40
2017-09-26T18:36:34.232Z,15.50
2017-09-26T18:39:02.585Z,15.60
2017-09-26T18:41:30.203Z,15.60
2017-09-26T18:43:57.812Z,15.70
2017-09-26T18:46:25.396Z,15.70
2017-09-26T18:48:53.005Z,15.50
2017-09-26T18:51:20.593Z,15.70
2017-09-26T18:53:48.205Z,15.70
2017-09-26T18:56:15.808Z,15.70
2017-09-26T18:58:43.424Z,15.60
2017-09-26T19:01:11.039Z,15.50
2017-09-26T19:03:39.651Z,15.40
2017-09-26T19:06:07.268Z,15.40
2017-09-26T19:08:34.853Z,15.10
2017-09-26T19:11:02.470Z,15.00
2017-09-26T19:13:31.564Z,15.30
2017-09-26T19:15:59.128Z,15.30
2017-09-26T19:18:27.495Z,15.50
2017-09-26T19:20:55.200Z,15.40
2017-09-26T19:23:22.808Z,15.50
2017-09-26T19:25:50.385Z,15.50
2017-09-26T19:28:18.015Z,15.20
2017-09-26T19:30:45.611Z,15.00
2017-09-26T19:33:13.211Z,15.10
2017-09-26T19:35:40.864Z,15.00
2017-09-26T19:38:08.597Z,14.90
2017-09-26T19:40:36.211Z,15.00
2017-09-26T19:43:03.815Z,15.10
2017-09-26T19:45:31.440Z,15.10
2017-09-26T19:47:59.155Z,14.80
2017-09-26T19:50:27.595Z,15.10
2017-09-26T19:52:55.203Z,15.10
2017-09-26T19:55:22.791Z,15.10
2017-09-26T19:57:50.400Z,15.20
2017-09-26T20:00:18.753Z,14.90
2017-09-26T20:02:46.365Z,14.80
2017-09-26T20:05:13.948Z,14.70
2017-09-26T20:07:41.556Z,14.60
2017-09-26T20:10:09.922Z,14.70
2017-09-26T20:12:38.257Z,15.10
2017-09-26T20:15:05.875Z,15.10
2017-09-26T20:17:34.219Z,15.20
2017-09-26T20:20:02.614Z,15.10
2017-09-26T20:22:30.975Z,15.20
2017-09-26T20:24:58.558Z,15.20
2017-09-26T20:27:27.040Z,14.80
2017-09-26T20:29:55.392Z,14.90
2017-09-26T20:32:22.988Z,14.90
2017-09-26T20:34:51.069Z,14.90
2017-09-26T20:37:18.680Z,14.70
2017-09-26T20:39:46.336Z,14.50
2017-09-26T20:42:13.921Z,14.60
2017-09-26T20:44:42.284Z,14.80
2017-09-26T20:47:09.869Z,14.80
2017-09-26T20:49:37.583Z,14.90
2017-09-26T20:52:05.160Z,14.90
2017-09-26T20:54:32.755Z,15.00
2017-09-26T20:57:00.382Z,15.00
2017-09-26T20:59:27.971Z,15.00
2017-09-26T21:01:55.560Z,15.00
2017-09-26T21:04:23.118Z,15.00
2017-09-26T21:06:50.733Z,14.90
2017-09-26T21:09:19.079Z,14.90
2017-09-26T21:11:46.639Z,14.90
2017-09-26T21:14:15.030Z,15.00
2017-09-26T21:16:42.664Z,14.90
2017-09-26T21:19:10.388Z,14.80
2017-09-26T21:21:38.080Z,14.60
2017-09-26T21:24:05.719Z,14.60
2017-09-26T21:26:33.298Z,14.70
2017-09-26T21:29:00.884Z,14.90
2017-09-26T21:31:28.473Z,14.80
2017-09-26T21:33:56.163Z,14.70
2017-09-26T21:36:23.750Z,14.50
2017-09-26T21:38:51.359Z,14.50
2017-09-26T21:41:18.968Z,14.40
2017-09-26T21:43:46.546Z,14.30
2017-09-26T21:46:14.913Z,14.10
2017-09-26T21:48:42.539Z,14.10
2017-09-26T21:51:10.173Z,14.00
2017-09-26T21:53:37.747Z,14.10
2017-09-26T21:56:05.307Z,14.00
2017-09-26T21:58:32.903Z,13.90
2017-09-26T22:01:00.470Z,14.00
2017-09-26T22:03:28.060Z,14.00
2017-09-26T22:05:55.628Z,14.10
2017-09-26T22:08:24.127Z,14.20
2017-09-26T22:10:51.791Z,14.30
2017-09-26T22:13:19.346Z,14.30
2017-09-26T22:15:46.937Z,14.30
2017-09-26T22:18:14.503Z,14.20
2017-09-26T22:20:42.131Z,14.20
2017-09-26T22:23:09.788Z,14.30
2017-09-26T22:25:37.383Z,14.30
2017-09-26T22:28:04.948Z,14.30
2017-09-26T22:30:33.324Z,14.20
2017-09-26T22:33:00.919Z,14.20
2017-09-26T22:35:28.552Z,14.10
2017-09-26T22:37:56.883Z,13.70
2017-09-26T22:40:24.511Z,13.70
2017-09-26T22:42:52.335Z,13.70
2017-09-26T22:45:19.931Z,13.90
2017-09-26T22:47:48.612Z,13.70
2017-09-26T22:50:16.186Z,13.50
2017-09-26T22:52:43.794Z,13.30
2017-09-26T22:55:12.262Z,13.70
2017-09-26T22:57:39.824Z,13.70
2017-09-26T23:00:07.416Z,13.60
2017-09-26T23:02:35.864Z,13.50
2017-09-26T23:05:03.472Z,13.50
2017-09-26T23:07:31.051Z,13.50
2017-09-26T23:09:58.661Z,13.40
2017-09-26T23:12:27.090Z,13.70
2017-09-26T23:14:54.706Z,13.70
2017-09-26T23:17:23.046Z,13.50
2017-09-26T23:19:50.612Z,13.50
2017-09-26T23:22:18.991Z,13.20
2017-09-26T23:24:48.139Z,13.30
2017-09-26T23:27:15.743Z,13.30
2017-09-26T23:29:44.196Z,13.20
2017-09-26T23:32:11.829Z,13.20
2017-09-26T23:34:39.387Z,13.20
2017-09-26T23:37:06.959Z,13.30
2017-09-26T23:39:34.565Z,13.40
2017-09-26T23:42:02.900Z,13.40
2017-09-26T23:44:30.655Z,13.40
2017-09-26T23:46:58.239Z,13.30
2017-09-26T23:49:25.807Z,13.20
2017-09-26T23:51:53.407Z,13.00
2017-09-26T23:54:20.995Z,12.90
2017-09-26T23:56:48.560Z,12.70
2017-09-26T23:59:16.155Z,12.70
